Carnival Triumph — C6FN5 — position and weather

sailwx.info

Track history (hours):
 
Tides and Currents Weather Stations Pressure Air Temp Water Temp Dewpoint Dewpoint Depression Visibility Wind Speed Wind Dir Waves Ship Positions

Carnival Triumph

Operator: Carnival Cruise Lines

Last reported at 2017-Jan-19 00:16 UTC. Time now 2017-Jan-19 21:20 UTC.
Position N 20°46' W 086°47'.

Type: Ship. MMSI: 308045000.

Date/timePositionNaut miles runAvg speedWind from/ knotsBaromVisibWave heightAir tempDewpointWater temp
2017-Jan-19 00:16N 20°46' W 086°47'1420.2
2017-Jan-18 23:33N 20°35' W 086°57'6 6.0
2017-Jan-18 22:31N 20°29' W 086°59'0 0.0
2017-Jan-18 21:31N 20°29' W 086°59'0 0.0
2017-Jan-18 20:31N 20°29' W 086°59'0 0.0
2017-Jan-18 19:31N 20°29' W 086°59'0 0.0
2017-Jan-18 18:31N 20°29' W 086°59'0 0.0
2017-Jan-18 17:31N 20°29' W 086°59'0 0.0
2017-Jan-18 16:31N 20°29' W 086°59'0 0.0
2017-Jan-18 15:31N 20°29' W 086°59'0 0.0
2017-Jan-18 14:31N 20°29' W 086°59'0 0.0
2017-Jan-18 13:25N 20°29' W 086°59'0 0.0
2017-Jan-18 12:31N 20°29' W 086°59'3 3.6
2017-Jan-18 11:33N 20°32' W 086°59'  
2017-Jan-14 23:33N 20°39' W 086°54'1211.2
2017-Jan-14 22:31N 20°29' W 086°59'0 0.0
2017-Jan-14 21:31N 20°29' W 086°59'0 0.0
2017-Jan-14 20:25N 20°29' W 086°59'0 0.0
2017-Jan-14 19:31N 20°29' W 086°59'0 0.0
2017-Jan-14 18:31N 20°29' W 086°59'0 0.0
2017-Jan-14 17:10N 20°29' W 086°59'0 0.0
2017-Jan-14 16:22N 20°29' W 086°59'0 0.0
2017-Jan-14 15:31N 20°29' W 086°59'0 0.0
2017-Jan-14 14:31N 20°29' W 086°59'0 0.0
2017-Jan-14 13:31N 20°29' W 086°59'2 2.1
2017-Jan-14 12:33N 20°31' W 086°59'1616.3
2017-Jan-14 11:33N 20°44' W 086°49'  
2017-Jan-10 00:06N 20°41' W 086°52'1018.1
2017-Jan-09 23:33N 20°33' W 086°58'4 4.1
2017-Jan-09 22:33N 20°29' W 086°59'0 0.0
2017-Jan-09 21:24N 20°29' W 086°59'0 0.0
2017-Jan-09 20:33N 20°29' W 086°59'0 0.0
2017-Jan-09 19:33N 20°29' W 086°59'0 0.0
2017-Jan-09 18:30N 20°29' W 086°59'0 0.0
2017-Jan-09 17:33N 20°29' W 086°59'0 0.0
2017-Jan-09 16:33N 20°29' W 086°59'0 0.0
2017-Jan-09 15:33N 20°29' W 086°59'0 0.0
2017-Jan-09 14:33N 20°29' W 086°59'0 0.3
2017-Jan-09 13:33N 20°29' W 086°59'1111.4
2017-Jan-09 12:34N 20°39' W 086°54'  
Track history (hours):
 
Tides and Currents Weather Stations Pressure Air Temp Water Temp Dewpoint Dewpoint Depression Visibility Wind Speed Wind Dir Waves Ship Positions

Carnival Triumph

Operator: Carnival Cruise Lines

Last reported at 2017-Jan-19 00:16 UTC. Time now 2017-Jan-19 21:20 UTC.
Position N 20°46' W 086°47'.

Type: Ship. MMSI: 308045000.

Date/timePositionNaut miles runAvg speedWind from/ knotsBaromVisibWave heightAir tempDewpointWater temp
2017-Jan-19 00:16N 20°46' W 086°47'1420.2
2017-Jan-18 23:33N 20°35' W 086°57'6 6.0
2017-Jan-18 22:31N 20°29' W 086°59'0 0.0
2017-Jan-18 21:31N 20°29' W 086°59'0 0.0
2017-Jan-18 20:31N 20°29' W 086°59'0 0.0
2017-Jan-18 19:31N 20°29' W 086°59'0 0.0
2017-Jan-18 18:31N 20°29' W 086°59'0 0.0
2017-Jan-18 17:31N 20°29' W 086°59'0 0.0
2017-Jan-18 16:31N 20°29' W 086°59'0 0.0
2017-Jan-18 15:31N 20°29' W 086°59'0 0.0
2017-Jan-18 14:31N 20°29' W 086°59'0 0.0
2017-Jan-18 13:25N 20°29' W 086°59'0 0.0
2017-Jan-18 12:31N 20°29' W 086°59'3 3.6
2017-Jan-18 11:33N 20°32' W 086°59'  
2017-Jan-14 23:33N 20°39' W 086°54'1211.2
2017-Jan-14 22:31N 20°29' W 086°59'0 0.0
2017-Jan-14 21:31N 20°29' W 086°59'0 0.0
2017-Jan-14 20:25N 20°29' W 086°59'0 0.0
2017-Jan-14 19:31N 20°29' W 086°59'0 0.0
2017-Jan-14 18:31N 20°29' W 086°59'0 0.0
2017-Jan-14 17:10N 20°29' W 086°59'0 0.0
2017-Jan-14 16:22N 20°29' W 086°59'0 0.0
2017-Jan-14 15:31N 20°29' W 086°59'0 0.0
2017-Jan-14 14:31N 20°29' W 086°59'0 0.0
2017-Jan-14 13:31N 20°29' W 086°59'2 2.1
2017-Jan-14 12:33N 20°31' W 086°59'1616.3
2017-Jan-14 11:33N 20°44' W 086°49'  
2017-Jan-10 00:06N 20°41' W 086°52'1018.1
2017-Jan-09 23:33N 20°33' W 086°58'4 4.1
2017-Jan-09 22:33N 20°29' W 086°59'0 0.0
2017-Jan-09 21:24N 20°29' W 086°59'0 0.0
2017-Jan-09 20:33N 20°29' W 086°59'0 0.0
2017-Jan-09 19:33N 20°29' W 086°59'0 0.0
2017-Jan-09 18:30N 20°29' W 086°59'0 0.0
2017-Jan-09 17:33N 20°29' W 086°59'0 0.0
2017-Jan-09 16:33N 20°29' W 086°59'0 0.0
2017-Jan-09 15:33N 20°29' W 086°59'0 0.0
2017-Jan-09 14:33N 20°29' W 086°59'0 0.3
2017-Jan-09 13:33N 20°29' W 086°59'1111.4
2017-Jan-09 12:34N 20°39' W 086°54'  

Dump ship's entire track history